Putnam, Virginia
Current Conditions -  °F | °C
As of 3:55 AM on Thursday 23 Oct 2014 (Local Time) from KJFZ Reporting Station
Overcast Overcast  
Wind Chill: 41°   Ceiling: 1600
Heat Index: 44°   Visibility: 10mi
Dew Point: 42°   Wind: 6mph
Humidity: 91%   Direction: 330°NNW
Pressure: 30.16"   Gusts: NA
Location:  37.0328°N, 82.0042°W
Report Text: KJFZ 230755Z AUTO 33005KT 10SM SCT010 OVC016 07/05 A3016 RMK AO2 T00670053
Loading
Personal Weather Stations






























Interactive Weather Map
Tropical Storm Tracking
New forecast layout! Learn more

10-Day Weather Forecast

Advertisements
Track Severe Weather on mobile